CCF6 weather

Edmonton/Morinville (Currie Field)
Alberta, Canada

Public forecast

Using degrees Celsius for public forecast. Weather courtesy of forecast.io.

METAR (pilot weather report)

Closest report is Edmonton / Villeneuve Airport, 9.7 nm (18.0 km) SSW. Retrieved 2019/07/20 02:00 UTC (21 minutes ago):

CZVL 200200Z AUTO 29007KT 9SM FEW070 BKN120 OVC140 14/13 A2988 RMK SLP128 DENSITY ALT 2700FT

TAF (pilot weather forecast)

Forecast is more than 12 hours old.

Closest forecast is Edmonton / Villeneuve Airport, 9.7 nm (18.0 km) SSW. Retrieved 2019/07/19 00:00 UTC (1 day ago):

TAF CZVL 192345Z 2000/2012 34008KT P6SM VCSH SCT012 BKN030CB TEMPO 2000/2002 VRB25G35KT 2SM +TSRA BR BKN010CB FM200200 04012KT P6SM SCT020 BKN030 TEMPO 2002/2005 VRB15G25KT 4SM TSRA BR BKN015CB FM200700 31008KT P6SM FEW006 BKN025 TEMPO 2009/2012 2SM BR BKN006 OVC030 PROB30 2011/2012 1/2SM FG VV004 RMK FCST BASED ON AUTO OBS. NXT FCST BY 200600Z